MFDO2: Hudson Lake

Data processed at Thu Jan 04 2018 23:01


All information presented herein is the property of the government of the United States of America and may be revised or deleted at any time without prior notice.
Dissemination of this information without the expressed written consent of the Public Affairs Office, Tulsa District U.S. Army Corps of Engineers is strictly prohibited.
These data are gathered electronically and, as presented, have not undergone any form of quality control. These data are not guaranteed to be valid or correct.
Go to home page.
Go to station list.

Upstream stations:

Downstream station:
Previous Day
Next Day
Current Day
    
SHEF ID:       MFDO2     Lake Hudson near Locust Grove, O
STATION TYPE:  RESERVOIR

               PRECIP ELEVATION   STORAGE   TW-ELEV    INFLOW   RELEASE  AIR-TEMP  WIND-DIRWIND-SPEED REL-HUMID SOLAR-RAD   VOLTAGE  BAT-LOAD
                   in        ft     ac-ft        ft       cfs       cfs         F       deg       mph         %      W/m2      volt      volt
              Ccp-Rev   Ccp-Rev   Ccp-Rev   Ccp-Rev  Regi-Rev  Regi-Rev   Ccp-Rev   Ccp-Rev   Ccp-Rev   Ccp-Rev   Ccp-Rev   Ccp-Rev   Ccp-Rev
(US/Central)
01/02 00:00      0.00    619.66    207523    557.22       343         0     16.56     39.40      7.80     58.67      0.00     11.99     11.53
01/02 01:00      0.00    619.63    207189    557.22        20         0     16.70     41.90      6.30     57.93      0.00     11.99     11.53
01/02 02:00      0.00    619.72    208189    557.22         0         0     16.57     47.10      6.00     59.43      0.00     11.99     11.53
01/02 03:00      0.00    619.66    207523    557.22         0         0     16.30     59.80      4.80     60.29      0.00     11.99     11.53
01/02 04:00      0.00    619.64    207300    557.22         0         0     16.05     66.60      4.40     60.44      0.00     11.99     11.53
01/02 05:00      0.00    619.65    207411    557.22      1076         0     16.32     56.10      4.30     61.33      0.00     11.99     11.53
01/02 06:00      0.00    619.66    207523    557.22      3226         0     16.21     65.70      3.00     61.39      0.00     11.99     11.53
01/02 07:00      0.00    619.76    208634    557.21      5170         0     16.12    125.00      2.70     56.06      0.00     11.99     11.53
01/02 08:00      0.00    619.84    209522    557.21      5656         0     15.80    125.70      2.30     57.25      0.00     11.99     11.53
01/02 09:00      0.00    619.96    210856    557.22      5855         0     16.45    134.70      1.90     53.91      5.80     12.00     11.53
01/02 10:00      0.00    619.99    211189    557.22      4779         0     17.62     30.80      0.40     54.28     35.50     12.05     11.53
01/02 11:00      0.00    620.06    211983    557.22      2628         0     18.86    329.10      1.00     50.23     87.00     12.19     11.53
01/02 12:00      0.00    620.04    211756    557.22       685         0     19.78    340.30      1.60     50.52     91.20     12.25     11.70
01/02 13:00      0.00    620.05    211869    557.22       199         0     21.02    337.40      1.20     47.88     96.80     12.26     11.77
01/02 14:00      0.00    620.03    211642    557.22         0         0     21.87    323.70      2.00     51.24     86.40     12.24     11.77
01/02 15:00      0.00    620.07    212097    557.22         0         0     22.50    326.20      1.40     49.61     65.00     12.19     11.77
01/02 16:00      0.00    620.07    212097    557.22         0         0     23.04    288.10      1.80     46.86     66.40     12.22     11.70
01/02 17:00      0.00    620.04    211756    557.22         0         0     23.76    294.50      0.70     45.27     24.70     12.08     11.77
01/02 18:00      0.00    620.05    211869    557.22         0         0     23.32    141.70      1.20     45.38      0.00     12.03     11.61
01/02 19:00      0.00    620.05    211869    557.22         0         0     22.41    215.80      0.40     49.62      0.00     12.02     11.53
01/02 20:00      0.00    620.06    211983    557.22         0         0     21.04    197.70      0.60     51.72      0.00     12.01     11.53
01/02 21:00      0.00    620.04    211756    557.22         0         0     19.13     80.40      1.10     56.98      0.00     12.01     11.53
01/02 22:00      0.00    620.04    211756    557.22        11         0     18.70    256.00      0.20     59.01      0.00     12.00     11.53
01/02 23:00      0.00    620.06    211983    557.22        11         0     18.14    244.90      0.30     66.75      0.00     12.00     11.53